createdAt,value
2022-08-29T00:00:18.228Z,0.00
2022-08-29T00:01:15.570Z,0.00
2022-08-29T00:02:15.620Z,0.00
2022-08-29T00:03:15.475Z,0.00
2022-08-29T00:04:15.484Z,0.00
2022-08-29T00:05:15.382Z,0.00
2022-08-29T00:06:15.308Z,0.00
2022-08-29T00:07:15.296Z,0.00
2022-08-29T00:08:15.357Z,0.00
2022-08-29T00:09:15.179Z,0.00
2022-08-29T00:10:15.123Z,0.00
2022-08-29T00:11:15.053Z,0.00
2022-08-29T00:12:15.015Z,0.00
2022-08-29T00:13:14.985Z,0.00
2022-08-29T00:14:23.173Z,0.00
2022-08-29T00:15:14.866Z,0.00
2022-08-29T00:16:14.826Z,0.00
2022-08-29T00:17:14.750Z,0.00
2022-08-29T00:18:14.888Z,0.00
2022-08-29T00:19:14.668Z,0.00
2022-08-29T00:20:14.622Z,0.00
2022-08-29T00:21:14.559Z,0.00
2022-08-29T00:22:14.506Z,0.00
2022-08-29T00:23:14.455Z,0.00
2022-08-29T00:24:14.423Z,0.00
2022-08-29T00:25:14.360Z,0.00
2022-08-29T00:26:14.295Z,0.00
2022-08-29T00:27:14.247Z,0.00
2022-08-29T00:28:14.319Z,0.00
2022-08-29T00:29:14.160Z,0.00
2022-08-29T00:30:14.109Z,0.00
2022-08-29T00:31:14.087Z,0.00
2022-08-29T00:32:13.976Z,0.00
2022-08-29T00:33:13.934Z,0.00
2022-08-29T00:34:13.913Z,0.00
2022-08-29T00:35:13.851Z,0.00
2022-08-29T00:36:13.771Z,0.00
2022-08-29T00:37:13.721Z,0.00
2022-08-29T00:38:13.819Z,0.00
2022-08-29T00:39:13.653Z,0.00
2022-08-29T00:40:13.624Z,0.00
2022-08-29T00:41:13.524Z,0.00
2022-08-29T00:42:13.473Z,0.00
2022-08-29T00:43:13.449Z,0.00
2022-08-29T00:44:13.377Z,0.00
2022-08-29T00:45:13.330Z,0.00
2022-08-29T00:46:13.312Z,0.00
2022-08-29T00:47:13.244Z,0.00
2022-08-29T00:48:13.434Z,0.00
2022-08-29T00:49:13.116Z,0.00
2022-08-29T00:50:13.076Z,0.00
2022-08-29T00:51:12.996Z,0.00
2022-08-29T00:52:12.987Z,0.00
2022-08-29T00:53:12.909Z,0.00
2022-08-29T00:54:12.863Z,0.00
2022-08-29T00:55:12.826Z,0.00
2022-08-29T00:56:12.744Z,0.00
2022-08-29T00:57:12.725Z,0.00
2022-08-29T00:58:14.128Z,0.00
2022-08-29T00:59:12.584Z,0.00
2022-08-29T01:00:12.561Z,0.00
2022-08-29T01:01:12.569Z,0.00
2022-08-29T01:02:12.513Z,0.00
2022-08-29T01:03:12.396Z,0.00
2022-08-29T01:04:15.666Z,0.00
2022-08-29T01:05:12.314Z,0.00
2022-08-29T01:06:12.236Z,0.00
2022-08-29T01:07:12.187Z,0.00
2022-08-29T01:08:12.137Z,0.00
2022-08-29T01:09:12.064Z,0.00
2022-08-29T01:10:13.453Z,0.00
2022-08-29T01:11:11.975Z,0.00
2022-08-29T01:12:11.928Z,0.00
2022-08-29T01:13:11.941Z,0.00
2022-08-29T01:14:11.846Z,0.00
2022-08-29T01:15:11.771Z,0.00
2022-08-29T01:16:11.760Z,0.00
2022-08-29T01:17:11.656Z,0.00
2022-08-29T01:18:11.619Z,0.00
2022-08-29T01:19:11.588Z,0.00
2022-08-29T01:20:11.517Z,0.00
2022-08-29T01:21:11.438Z,0.00
2022-08-29T01:22:11.395Z,0.00
2022-08-29T01:23:11.353Z,0.00
2022-08-29T01:24:11.325Z,0.00
2022-08-29T01:25:11.265Z,0.00
2022-08-29T01:26:11.191Z,0.00
2022-08-29T01:27:11.136Z,0.00
2022-08-29T01:28:11.077Z,0.00
2022-08-29T01:29:11.083Z,0.00
2022-08-29T01:30:11.014Z,0.00
2022-08-29T01:31:10.975Z,0.00
2022-08-29T01:32:10.913Z,0.00
2022-08-29T01:33:10.836Z,0.00
2022-08-29T01:34:10.783Z,0.00
2022-08-29T01:35:10.754Z,0.00
2022-08-29T01:36:10.681Z,0.00
2022-08-29T01:37:10.617Z,0.00
2022-08-29T01:38:10.622Z,0.00
2022-08-29T01:39:10.550Z,0.00
2022-08-29T01:40:10.501Z,0.00
2022-08-29T01:41:10.408Z,0.00
2022-08-29T01:42:10.401Z,0.00
2022-08-29T01:43:10.314Z,0.00
2022-08-29T01:44:10.352Z,0.00
2022-08-29T01:45:10.368Z,0.00
2022-08-29T01:46:10.199Z,0.00
2022-08-29T01:47:10.095Z,0.00
2022-08-29T01:48:10.073Z,0.00
2022-08-29T01:49:10.032Z,0.00
2022-08-29T01:50:09.956Z,0.00
2022-08-29T01:51:19.302Z,0.00
2022-08-29T01:52:09.855Z,0.00
2022-08-29T01:53:09.823Z,0.00
2022-08-29T01:54:09.749Z,0.00
2022-08-29T01:55:09.704Z,0.00
2022-08-29T01:56:09.663Z,0.00
2022-08-29T01:57:12.785Z,0.00
2022-08-29T01:58:09.541Z,0.00
2022-08-29T01:59:09.517Z,0.00
2022-08-29T02:00:09.454Z,0.00
2022-08-29T02:01:09.431Z,0.00
2022-08-29T02:02:09.367Z,0.00
2022-08-29T02:03:09.310Z,0.00
2022-08-29T02:04:09.254Z,0.00
2022-08-29T02:05:09.184Z,0.00
2022-08-29T02:06:09.119Z,0.00
2022-08-29T02:07:12.506Z,0.00
2022-08-29T02:08:09.034Z,0.00
2022-08-29T02:09:11.354Z,0.00
2022-08-29T02:10:08.916Z,0.00
2022-08-29T02:11:08.846Z,0.00
2022-08-29T02:12:08.806Z,0.00
2022-08-29T02:13:08.779Z,0.00
2022-08-29T02:14:09.830Z,0.00
2022-08-29T02:15:08.656Z,0.00
2022-08-29T02:16:08.627Z,0.00
2022-08-29T02:17:08.559Z,0.00
2022-08-29T02:18:08.532Z,0.00
2022-08-29T02:19:08.438Z,0.00
2022-08-29T02:20:08.414Z,0.00
2022-08-29T02:21:08.320Z,0.00
2022-08-29T02:22:08.314Z,0.00
2022-08-29T02:23:21.864Z,0.00
2022-08-29T02:24:24.590Z,0.00
2022-08-29T02:25:08.164Z,0.00
2022-08-29T02:26:08.074Z,0.00
2022-08-29T02:27:08.766Z,0.00
2022-08-29T02:28:07.990Z,0.00
2022-08-29T02:29:07.903Z,0.00
2022-08-29T02:30:07.888Z,0.00
2022-08-29T02:31:07.877Z,0.00
2022-08-29T02:32:08.033Z,0.00
2022-08-29T02:33:07.705Z,0.00
2022-08-29T02:34:07.655Z,0.00
2022-08-29T02:35:07.630Z,0.00
2022-08-29T02:36:07.575Z,0.00
2022-08-29T02:37:07.508Z,0.00
2022-08-29T02:38:07.565Z,0.00
2022-08-29T02:39:07.396Z,0.00
2022-08-29T02:40:07.404Z,0.00
2022-08-29T02:41:09.349Z,0.00
2022-08-29T02:42:07.269Z,0.00
2022-08-29T02:43:07.187Z,0.00
2022-08-29T02:44:07.136Z,0.00
2022-08-29T02:45:07.113Z,0.00
2022-08-29T02:46:07.032Z,0.00
2022-08-29T02:47:07.020Z,0.00
2022-08-29T02:48:06.917Z,0.00
2022-08-29T02:49:06.886Z,0.00
2022-08-29T02:50:06.844Z,0.00
2022-08-29T02:51:06.765Z,0.00
2022-08-29T02:52:06.874Z,0.00
2022-08-29T02:53:06.690Z,0.00
2022-08-29T02:54:06.613Z,0.00
2022-08-29T02:55:06.589Z,0.00
2022-08-29T02:56:06.507Z,0.00
2022-08-29T02:57:06.447Z,0.00
2022-08-29T02:58:06.443Z,0.00
2022-08-29T02:59:06.349Z,0.00
2022-08-29T03:00:06.293Z,0.00
2022-08-29T03:01:06.278Z,0.00
2022-08-29T03:02:06.228Z,0.00
2022-08-29T03:03:06.125Z,0.00
2022-08-29T03:04:06.114Z,0.00
2022-08-29T03:05:06.047Z,0.00
2022-08-29T03:06:05.970Z,0.00
2022-08-29T03:07:05.956Z,0.00
2022-08-29T03:08:05.866Z,0.00
2022-08-29T03:09:05.801Z,0.00
2022-08-29T03:10:05.798Z,0.00
2022-08-29T03:11:05.712Z,0.00
2022-08-29T03:12:05.644Z,0.00
2022-08-29T03:13:05.635Z,0.00
2022-08-29T03:14:05.549Z,0.00
2022-08-29T03:15:05.510Z,0.00
2022-08-29T03:16:05.496Z,0.00
2022-08-29T03:17:05.404Z,0.00
2022-08-29T03:18:05.375Z,0.00
2022-08-29T03:19:05.279Z,0.00
2022-08-29T03:20:05.266Z,0.00
2022-08-29T03:21:05.173Z,0.00
2022-08-29T03:22:05.133Z,0.00
2022-08-29T03:23:05.109Z,0.00
2022-08-29T03:24:05.040Z,0.00
2022-08-29T03:25:04.974Z,0.00
2022-08-29T03:26:04.936Z,0.00
2022-08-29T03:27:04.902Z,0.00
2022-08-29T03:28:04.859Z,0.00
2022-08-29T03:29:04.783Z,0.00
2022-08-29T03:30:04.718Z,0.00
2022-08-29T03:31:04.695Z,0.00
2022-08-29T03:32:04.600Z,0.00
2022-08-29T03:33:06.866Z,0.00
2022-08-29T03:34:04.510Z,0.00
2022-08-29T03:35:04.437Z,0.00
2022-08-29T03:36:04.406Z,0.00
2022-08-29T03:37:04.332Z,0.00
2022-08-29T03:38:04.326Z,0.00
2022-08-29T03:39:04.250Z,0.00
2022-08-29T03:40:04.246Z,0.00
2022-08-29T03:41:04.179Z,0.00
2022-08-29T03:42:04.092Z,0.00
2022-08-29T03:43:04.090Z,0.00
2022-08-29T03:44:03.987Z,0.00
2022-08-29T03:45:03.937Z,0.00
2022-08-29T03:46:03.919Z,0.00
2022-08-29T03:47:03.848Z,0.00
2022-08-29T03:48:03.764Z,0.00
2022-08-29T03:49:03.714Z,0.00
2022-08-29T03:50:03.674Z,0.00
2022-08-29T03:51:03.622Z,0.00
2022-08-29T03:52:03.595Z,0.00
2022-08-29T03:53:03.505Z,0.00
2022-08-29T03:54:03.457Z,0.00
2022-08-29T03:55:03.432Z,0.00
2022-08-29T03:56:03.347Z,0.00
2022-08-29T03:57:03.325Z,0.00
2022-08-29T03:58:03.250Z,0.00
2022-08-29T03:59:03.176Z,0.00
2022-08-29T04:00:03.144Z,0.00
2022-08-29T04:01:03.094Z,0.00
2022-08-29T04:02:03.217Z,4.00
2022-08-29T04:03:03.049Z,0.00
2022-08-29T04:04:02.933Z,4.00
2022-08-29T04:05:07.357Z,4.00
2022-08-29T04:06:02.822Z,4.00
2022-08-29T04:07:02.793Z,4.00
2022-08-29T04:08:02.701Z,4.00
2022-08-29T04:09:02.646Z,4.00
2022-08-29T04:10:02.636Z,8.00
2022-08-29T04:11:02.570Z,8.00
2022-08-29T04:12:02.523Z,12.00
2022-08-29T04:13:02.474Z,12.00
2022-08-29T04:14:02.399Z,16.00
2022-08-29T04:15:02.352Z,16.00
2022-08-29T04:16:02.382Z,20.00
2022-08-29T04:17:02.221Z,20.00
2022-08-29T04:18:02.216Z,24.00
2022-08-29T04:19:02.134Z,32.00
2022-08-29T04:20:02.099Z,32.00
2022-08-29T04:21:02.015Z,40.00
2022-08-29T04:22:01.973Z,44.00
2022-08-29T04:23:01.952Z,48.00
2022-08-29T04:24:01.862Z,56.00
2022-08-29T04:25:01.828Z,60.00
2022-08-29T04:26:19.139Z,68.00
2022-08-29T04:27:01.694Z,76.00
2022-08-29T04:28:01.658Z,80.00
2022-08-29T04:29:01.642Z,88.00
2022-08-29T04:30:01.575Z,96.00
2022-08-29T04:31:01.506Z,108.00
2022-08-29T04:32:01.454Z,116.00
2022-08-29T04:33:01.416Z,128.00
2022-08-29T04:34:01.327Z,136.00
2022-08-29T04:35:01.313Z,148.00
2022-08-29T04:36:01.244Z,160.00
2022-08-29T04:37:01.204Z,172.00
2022-08-29T04:38:01.121Z,188.00
2022-08-29T04:39:01.073Z,200.00
2022-08-29T04:40:01.050Z,216.00
2022-08-29T04:41:00.996Z,228.00
2022-08-29T04:42:00.944Z,244.00
2022-08-29T04:43:00.862Z,260.00
2022-08-29T04:44:00.793Z,276.00
2022-08-29T04:45:00.763Z,292.00
2022-08-29T04:46:00.735Z,308.00
2022-08-29T04:47:00.679Z,324.00
2022-08-29T04:48:03.458Z,340.00
2022-08-29T04:49:04.012Z,360.00
2022-08-29T04:50:00.499Z,376.00
2022-08-29T04:51:00.434Z,392.00
2022-08-29T04:52:00.419Z,412.00
2022-08-29T04:53:00.363Z,428.00
2022-08-29T04:54:00.275Z,448.00
2022-08-29T04:55:00.239Z,468.00
2022-08-29T04:56:00.198Z,484.00
2022-08-29T04:57:00.108Z,504.00
2022-08-29T04:58:00.117Z,520.00
2022-08-29T04:59:00.024Z,540.00
2022-08-29T05:00:00.023Z,556.00
2022-08-29T05:00:59.906Z,576.00
2022-08-29T05:01:59.927Z,596.00
2022-08-29T05:02:59.858Z,616.00
2022-08-29T05:03:59.903Z,640.00
2022-08-29T05:04:59.709Z,656.00
2022-08-29T05:05:59.657Z,676.00
2022-08-29T05:06:59.574Z,696.00
2022-08-29T05:07:59.549Z,716.00
2022-08-29T05:09:00.193Z,740.00
2022-08-29T05:09:59.411Z,760.00
2022-08-29T05:10:59.375Z,780.00
2022-08-29T05:11:59.383Z,800.00
2022-08-29T05:12:59.296Z,820.00
2022-08-29T05:13:59.253Z,836.00
2022-08-29T05:14:59.199Z,856.00
2022-08-29T05:15:59.184Z,872.00
2022-08-29T05:16:59.048Z,892.00
2022-08-29T05:17:59.024Z,908.00
2022-08-29T05:18:58.986Z,928.00
2022-08-29T05:19:58.925Z,944.00
2022-08-29T05:20:58.857Z,964.00
2022-08-29T05:21:58.808Z,984.00
2022-08-29T05:22:58.762Z,1000.00
2022-08-29T05:23:58.682Z,1020.00
2022-08-29T05:24:58.674Z,1040.00
2022-08-29T05:25:58.573Z,1060.00
2022-08-29T05:26:58.518Z,1080.00
2022-08-29T05:27:58.475Z,1100.00
2022-08-29T05:28:58.463Z,1116.00
2022-08-29T05:29:58.400Z,1136.00
2022-08-29T05:30:58.395Z,1152.00
2022-08-29T05:31:58.284Z,1168.00
2022-08-29T05:32:58.196Z,1184.00
2022-08-29T05:33:58.189Z,1200.00
2022-08-29T05:34:58.118Z,1216.00
2022-08-29T05:35:58.058Z,1232.00
2022-08-29T05:36:58.029Z,1248.00
2022-08-29T05:37:57.929Z,1268.00
2022-08-29T05:38:57.924Z,1284.00
2022-08-29T05:39:57.881Z,1300.00
2022-08-29T05:40:57.798Z,1320.00
2022-08-29T05:41:57.755Z,1336.00
2022-08-29T05:42:57.682Z,1352.00
2022-08-29T05:43:57.622Z,1364.00
2022-08-29T05:44:57.605Z,1380.00
2022-08-29T05:45:57.563Z,1396.00
2022-08-29T05:46:57.477Z,1412.00
2022-08-29T05:47:57.404Z,1432.00
2022-08-29T05:48:57.393Z,1448.00
2022-08-29T05:49:57.454Z,1464.00
2022-08-29T05:50:57.260Z,1484.00
2022-08-29T05:51:57.208Z,1504.00
2022-08-29T05:52:57.168Z,1524.00
2022-08-29T05:53:57.109Z,1544.00
2022-08-29T05:54:57.077Z,1560.00
2022-08-29T05:55:57.029Z,1580.00
2022-08-29T05:56:56.948Z,1596.00
2022-08-29T05:57:56.922Z,1616.00
2022-08-29T05:58:56.855Z,1632.00
2022-08-29T05:59:56.786Z,1656.00
2022-08-29T06:00:56.718Z,1676.00
2022-08-29T06:01:56.672Z,1692.00
2022-08-29T06:02:56.748Z,1712.00
2022-08-29T06:03:56.617Z,1736.00
2022-08-29T06:04:56.536Z,1756.00
2022-08-29T06:05:56.468Z,1784.00
2022-08-29T06:06:56.431Z,1816.00
2022-08-29T06:07:56.396Z,1836.00
2022-08-29T06:08:56.305Z,1856.00
2022-08-29T06:09:56.870Z,1872.00
2022-08-29T06:10:56.206Z,1892.00
2022-08-29T06:11:56.131Z,1912.00
2022-08-29T06:12:56.129Z,1936.00
2022-08-29T06:13:56.045Z,1952.00
2022-08-29T06:14:56.028Z,1972.00
2022-08-29T06:15:56.001Z,1992.00
2022-08-29T06:16:55.899Z,2004.00
2022-08-29T06:17:55.832Z,2012.00
2022-08-29T06:18:55.875Z,2020.00
2022-08-29T06:19:55.754Z,2048.00
2022-08-29T06:20:55.688Z,2060.00
2022-08-29T06:21:55.631Z,2088.00
2022-08-29T06:22:55.582Z,2108.00
2022-08-29T06:23:55.544Z,2128.00
2022-08-29T06:24:55.474Z,2136.00
2022-08-29T06:25:55.436Z,2152.00
2022-08-29T06:26:55.393Z,2152.00
2022-08-29T06:27:55.314Z,2148.00
2022-08-29T06:28:55.258Z,2132.00
2022-08-29T06:29:57.349Z,2152.00
2022-08-29T06:30:55.173Z,2176.00
2022-08-29T06:31:55.140Z,2204.00
2022-08-29T06:32:55.071Z,2232.00
2022-08-29T06:33:54.996Z,2256.00
2022-08-29T06:34:54.947Z,2280.00
2022-08-29T06:35:54.891Z,2304.00
2022-08-29T06:36:54.865Z,2332.00
2022-08-29T06:37:54.851Z,2376.00
2022-08-29T06:38:54.754Z,2420.00
2022-08-29T06:39:54.745Z,2456.00
2022-08-29T06:40:54.634Z,2468.00
2022-08-29T06:41:54.574Z,2484.00
2022-08-29T06:42:54.529Z,2496.00
2022-08-29T06:43:54.506Z,2508.00
2022-08-29T06:44:54.427Z,2528.00
2022-08-29T06:45:54.474Z,2564.00
2022-08-29T06:46:54.324Z,2604.00
2022-08-29T06:47:54.245Z,2616.00
2022-08-29T06:48:54.205Z,2672.00
2022-08-29T06:49:54.180Z,2724.00
2022-08-29T06:50:54.150Z,2808.00
2022-08-29T06:51:57.730Z,2856.00
2022-08-29T06:52:55.656Z,2888.00
2022-08-29T06:53:53.973Z,2884.00
2022-08-29T06:54:53.909Z,2908.00
2022-08-29T06:55:53.846Z,2904.00
2022-08-29T06:56:53.797Z,2868.00
2022-08-29T06:57:53.734Z,2760.00
2022-08-29T06:58:53.731Z,2620.00
2022-08-29T06:59:53.655Z,2648.00
2022-08-29T07:00:53.584Z,2720.00
2022-08-29T07:01:53.594Z,2756.00
2022-08-29T07:02:53.561Z,2800.00
2022-08-29T07:03:53.416Z,2828.00
2022-08-29T07:04:53.383Z,2880.00
2022-08-29T07:05:53.338Z,2908.00
2022-08-29T07:06:53.293Z,2892.00
2022-08-29T07:07:53.229Z,2960.00
2022-08-29T07:08:55.641Z,2972.00
2022-08-29T07:09:53.128Z,3008.00
2022-08-29T07:10:53.064Z,3016.00
2022-08-29T07:11:53.043Z,3024.00
2022-08-29T07:12:52.959Z,3052.00
2022-08-29T07:13:52.905Z,3076.00
2022-08-29T07:14:52.877Z,3064.00
2022-08-29T07:15:52.869Z,3012.00
2022-08-29T07:16:52.777Z,3036.00
2022-08-29T07:17:56.593Z,3100.00
2022-08-29T07:18:52.643Z,3100.00
2022-08-29T07:19:52.603Z,3112.00
2022-08-29T07:20:52.550Z,3128.00
2022-08-29T07:21:52.521Z,3132.00
2022-08-29T07:22:52.462Z,3144.00
2022-08-29T07:23:52.392Z,3164.00
2022-08-29T07:24:52.346Z,3180.00
2022-08-29T07:25:52.286Z,3200.00
2022-08-29T07:26:52.262Z,3204.00
2022-08-29T07:27:53.499Z,3232.00
2022-08-29T07:28:52.138Z,3252.00
2022-08-29T07:29:52.091Z,3284.00
2022-08-29T07:30:52.063Z,3316.00
2022-08-29T07:31:51.982Z,3268.00
2022-08-29T07:32:51.948Z,3284.00
2022-08-29T07:33:57.069Z,3364.00
2022-08-29T07:34:55.796Z,3328.00
2022-08-29T07:35:51.768Z,3432.00
2022-08-29T07:36:51.742Z,3472.00
2022-08-29T07:37:51.707Z,3420.00
2022-08-29T07:38:51.622Z,3352.00
2022-08-29T07:39:51.575Z,3492.00
2022-08-29T07:40:51.523Z,3596.00
2022-08-29T07:41:51.485Z,3660.00
2022-08-29T07:42:52.385Z,3660.00
2022-08-29T07:43:51.350Z,3652.00
2022-08-29T07:44:51.331Z,3680.00
2022-08-29T07:45:51.285Z,3792.00
2022-08-29T07:46:51.245Z,3824.00
2022-08-29T07:47:51.162Z,3816.00
2022-08-29T07:48:51.104Z,3792.00
2022-08-29T07:49:51.067Z,3756.00
2022-08-29T07:50:51.015Z,3732.00
2022-08-29T07:51:50.986Z,3764.00
2022-08-29T07:53:00.424Z,3888.00
2022-08-29T07:53:50.851Z,3904.00
2022-08-29T07:54:50.804Z,3872.00
2022-08-29T07:55:50.780Z,3968.00
2022-08-29T07:56:50.706Z,4044.00
2022-08-29T07:57:50.680Z,4088.00
2022-08-29T07:58:50.595Z,4108.00
2022-08-29T07:59:50.553Z,4104.00
2022-08-29T08:00:50.491Z,4092.00
2022-08-29T08:01:50.503Z,4076.00
2022-08-29T08:02:50.433Z,4080.00
2022-08-29T08:03:50.859Z,4012.00
2022-08-29T08:04:52.434Z,3864.00
2022-08-29T08:05:50.242Z,3964.00
2022-08-29T08:06:50.199Z,4000.00
2022-08-29T08:07:55.517Z,4304.00
2022-08-29T08:08:50.118Z,4320.00
2022-08-29T08:09:50.042Z,4332.00
2022-08-29T08:10:52.199Z,4544.00
2022-08-29T08:11:50.015Z,4692.00
2022-08-29T08:12:49.912Z,4720.00
2022-08-29T08:13:49.830Z,4724.00
2022-08-29T08:14:49.794Z,5000.00
2022-08-29T08:15:49.735Z,5336.00
2022-08-29T08:16:49.734Z,5516.00
2022-08-29T08:17:49.661Z,5544.00
2022-08-29T08:18:49.585Z,5728.00
2022-08-29T08:19:49.545Z,5864.00
2022-08-29T08:20:49.494Z,5892.00
2022-08-29T08:21:50.206Z,5676.00
2022-08-29T08:22:49.416Z,5752.00
2022-08-29T08:23:49.334Z,5892.00
2022-08-29T08:24:49.320Z,5956.00
2022-08-29T08:25:49.250Z,6032.00
2022-08-29T08:26:49.205Z,6092.00
2022-08-29T08:27:49.143Z,6056.00
2022-08-29T08:28:49.123Z,5920.00
2022-08-29T08:29:49.063Z,5696.00
2022-08-29T08:30:49.026Z,6028.00
2022-08-29T08:31:48.987Z,6076.00
2022-08-29T08:32:54.054Z,6040.00
2022-08-29T08:33:48.898Z,5960.00
2022-08-29T08:34:48.846Z,6040.00
2022-08-29T08:35:48.781Z,6164.00
2022-08-29T08:36:48.753Z,6096.00
2022-08-29T08:37:48.685Z,6204.00
2022-08-29T08:38:48.647Z,5968.00
2022-08-29T08:39:48.594Z,5868.00
2022-08-29T08:40:48.549Z,6148.00
2022-08-29T08:41:48.532Z,5464.00
2022-08-29T08:42:48.456Z,5692.00
2022-08-29T08:43:48.444Z,5652.00
2022-08-29T08:44:48.372Z,5844.00
2022-08-29T08:45:48.390Z,6104.00
2022-08-29T08:46:48.278Z,6200.00
2022-08-29T08:47:48.234Z,6220.00
2022-08-29T08:48:48.212Z,6056.00
2022-08-29T08:49:48.219Z,5980.00
2022-08-29T08:50:52.427Z,5872.00
2022-08-29T08:51:48.054Z,6032.00
2022-08-29T08:52:48.019Z,6108.00
2022-08-29T08:53:47.969Z,6288.00
2022-08-29T08:54:47.970Z,6116.00
2022-08-29T08:55:47.874Z,5908.00
2022-08-29T08:56:47.830Z,6024.00
2022-08-29T08:57:47.789Z,6356.00
2022-08-29T08:58:47.743Z,6388.00
2022-08-29T08:59:47.729Z,6300.00
2022-08-29T09:00:47.753Z,6372.00
2022-08-29T09:01:47.623Z,6592.00
2022-08-29T09:02:47.686Z,6616.00
2022-08-29T09:03:47.526Z,6280.00
2022-08-29T09:04:47.513Z,6256.00
2022-08-29T09:05:49.376Z,6296.00
2022-08-29T09:06:47.384Z,6064.00
2022-08-29T09:07:47.354Z,6232.00
2022-08-29T09:08:47.318Z,5896.00
2022-08-29T09:09:47.274Z,5952.00
2022-08-29T09:10:47.256Z,6176.00
2022-08-29T09:11:47.185Z,6328.00
2022-08-29T09:12:49.786Z,6472.00
2022-08-29T09:13:47.096Z,6488.00
2022-08-29T09:14:47.063Z,6520.00
2022-08-29T09:15:47.041Z,6416.00
2022-08-29T09:16:47.027Z,6552.00
2022-08-29T09:17:46.934Z,6608.00
2022-08-29T09:18:52.543Z,6540.00
2022-08-29T09:19:46.847Z,6468.00
2022-08-29T09:20:46.799Z,6672.00
2022-08-29T09:21:46.774Z,6692.00
2022-08-29T09:22:46.715Z,6708.00
2022-08-29T09:23:46.669Z,6732.00
2022-08-29T09:24:46.642Z,6664.00
2022-08-29T09:25:46.591Z,6508.00
2022-08-29T09:26:46.576Z,6472.00
2022-08-29T09:27:46.490Z,6180.00
2022-08-29T09:28:46.481Z,6108.00
2022-08-29T09:29:46.423Z,6040.00
2022-08-29T09:30:46.397Z,5900.00
2022-08-29T09:31:46.364Z,5832.00
2022-08-29T09:32:46.283Z,5876.00
2022-08-29T09:33:46.277Z,6040.00
2022-08-29T09:35:07.350Z,6040.00
2022-08-29T09:35:46.149Z,5880.00
2022-08-29T09:36:47.789Z,5896.00
2022-08-29T09:37:46.087Z,5972.00
2022-08-29T09:38:46.036Z,6284.00
2022-08-29T09:39:50.001Z,6424.00
2022-08-29T09:40:45.988Z,6520.00
2022-08-29T09:41:45.921Z,6496.00
2022-08-29T09:42:45.887Z,6392.00
2022-08-29T09:43:45.808Z,6392.00
2022-08-29T09:44:45.802Z,6460.00
2022-08-29T09:45:45.815Z,6396.00
2022-08-29T09:46:45.801Z,6252.00
2022-08-29T09:47:45.683Z,6204.00
2022-08-29T09:48:45.610Z,6380.00
2022-08-29T09:49:45.574Z,6228.00
2022-08-29T09:50:45.548Z,6300.00
2022-08-29T09:51:45.466Z,6256.00
2022-08-29T09:52:45.464Z,6292.00
2022-08-29T09:53:45.462Z,6304.00
2022-08-29T09:54:45.382Z,6356.00
2022-08-29T09:55:45.508Z,6460.00
2022-08-29T09:56:45.280Z,6304.00
2022-08-29T09:57:45.215Z,6216.00
2022-08-29T09:58:45.194Z,6056.00
2022-08-29T09:59:45.462Z,5832.00
2022-08-29T10:00:45.198Z,5988.00
2022-08-29T10:01:45.150Z,6072.00
2022-08-29T10:02:45.119Z,6036.00
2022-08-29T10:03:44.968Z,5976.00
2022-08-29T10:04:44.941Z,6252.00
2022-08-29T10:05:44.930Z,6084.00
2022-08-29T10:06:49.480Z,5760.00
2022-08-29T10:07:44.818Z,5880.00
2022-08-29T10:08:44.774Z,6060.00
2022-08-29T10:09:44.730Z,5948.00
2022-08-29T10:10:44.695Z,5684.00
2022-08-29T10:11:44.669Z,5536.00
2022-08-29T10:12:44.608Z,5676.00
2022-08-29T10:13:44.620Z,5720.00
2022-08-29T10:14:48.167Z,5784.00
2022-08-29T10:15:51.048Z,5364.00
2022-08-29T10:16:44.491Z,5676.00
2022-08-29T10:17:44.379Z,5724.00
2022-08-29T10:18:44.390Z,5740.00
2022-08-29T10:19:44.346Z,5636.00
2022-08-29T10:20:44.273Z,5628.00
2022-08-29T10:21:44.235Z,5636.00
2022-08-29T10:22:44.220Z,5632.00
2022-08-29T10:23:44.130Z,5788.00
2022-08-29T10:24:44.116Z,5840.00
2022-08-29T10:25:44.075Z,6008.00
2022-08-29T10:26:44.052Z,5752.00
2022-08-29T10:27:44.046Z,5832.00
2022-08-29T10:28:43.949Z,5956.00
2022-08-29T10:29:43.970Z,5928.00
2022-08-29T10:30:43.876Z,5656.00
2022-08-29T10:31:43.850Z,5528.00
2022-08-29T10:32:43.768Z,5316.00
2022-08-29T10:33:43.740Z,5300.00
2022-08-29T10:34:43.719Z,5060.00
2022-08-29T10:35:43.650Z,5020.00
2022-08-29T10:36:43.609Z,5288.00
2022-08-29T10:37:43.565Z,5316.00
2022-08-29T10:38:43.537Z,5308.00
2022-08-29T10:39:43.507Z,5204.00
2022-08-29T10:40:43.697Z,5476.00
2022-08-29T10:41:47.079Z,5596.00
2022-08-29T10:42:43.354Z,5456.00
2022-08-29T10:43:43.293Z,5248.00
2022-08-29T10:44:43.292Z,5160.00
2022-08-29T10:45:43.312Z,5112.00
2022-08-29T10:46:43.211Z,5208.00
2022-08-29T10:47:43.174Z,5236.00
2022-08-29T10:48:43.123Z,5172.00
2022-08-29T10:49:44.909Z,5080.00
2022-08-29T10:50:45.004Z,5428.00
2022-08-29T10:51:42.986Z,5652.00
2022-08-29T10:52:42.937Z,5760.00
2022-08-29T10:53:42.879Z,5720.00
2022-08-29T10:54:42.878Z,6004.00
2022-08-29T10:55:42.808Z,6196.00
2022-08-29T10:56:42.771Z,6204.00
2022-08-29T10:57:42.727Z,6068.00
2022-08-29T10:58:42.756Z,5284.00
2022-08-29T10:59:42.695Z,5328.00
2022-08-29T11:00:42.637Z,5376.00
2022-08-29T11:01:42.616Z,5928.00
2022-08-29T11:02:42.522Z,6060.00
2022-08-29T11:03:42.484Z,6032.00
2022-08-29T11:04:42.459Z,5652.00
2022-08-29T11:05:42.385Z,4964.00
2022-08-29T11:06:42.372Z,5900.00
2022-08-29T11:07:42.314Z,5856.00
2022-08-29T11:08:42.250Z,5916.00
2022-08-29T11:09:42.250Z,5888.00
2022-08-29T11:10:42.197Z,5524.00
2022-08-29T11:11:42.163Z,4948.00
2022-08-29T11:12:42.094Z,5752.00
2022-08-29T11:13:42.049Z,5904.00
2022-08-29T11:14:42.044Z,5600.00
2022-08-29T11:15:41.973Z,5752.00
2022-08-29T11:16:41.973Z,5948.00
2022-08-29T11:17:41.889Z,6032.00
2022-08-29T11:18:41.888Z,6052.00
2022-08-29T11:19:41.834Z,5892.00
2022-08-29T11:20:41.778Z,5892.00
2022-08-29T11:21:41.721Z,5896.00
2022-08-29T11:22:41.698Z,5816.00
2022-08-29T11:23:41.673Z,5156.00
2022-08-29T11:24:45.225Z,5536.00
2022-08-29T11:25:41.559Z,5512.00
2022-08-29T11:26:41.531Z,5156.00
2022-08-29T11:27:41.515Z,5836.00
2022-08-29T11:29:41.424Z,5748.00
2022-08-29T11:30:43.746Z,5444.00
2022-08-29T11:31:41.400Z,5784.00
2022-08-29T11:32:41.268Z,5828.00
2022-08-29T11:33:41.244Z,5964.00
2022-08-29T11:34:41.235Z,6012.00
2022-08-29T11:35:41.151Z,5544.00
2022-08-29T11:36:41.227Z,5416.00
2022-08-29T11:37:41.083Z,5716.00
2022-08-29T11:38:41.045Z,5364.00
2022-08-29T11:39:41.002Z,5552.00
2022-08-29T11:40:48.741Z,5528.00
2022-08-29T11:41:40.993Z,4420.00
2022-08-29T11:42:56.227Z,5048.00
2022-08-29T11:43:40.856Z,5152.00
2022-08-29T11:44:40.792Z,5196.00
2022-08-29T11:45:40.735Z,5120.00
2022-08-29T11:46:40.798Z,5100.00
2022-08-29T11:47:41.431Z,5064.00
2022-08-29T11:48:40.652Z,4968.00
2022-08-29T11:49:40.597Z,4136.00
2022-08-29T11:50:40.587Z,4144.00
2022-08-29T11:51:40.505Z,4432.00
2022-08-29T11:52:40.452Z,4624.00
2022-08-29T11:53:40.424Z,3972.00
2022-08-29T11:54:40.409Z,5116.00
2022-08-29T11:55:40.327Z,5260.00
2022-08-29T11:56:40.353Z,4764.00
2022-08-29T11:57:40.277Z,4656.00
2022-08-29T11:58:40.204Z,4160.00
2022-08-29T11:59:40.204Z,4920.00
2022-08-29T12:00:40.135Z,4996.00
2022-08-29T12:01:40.140Z,4752.00
2022-08-29T12:02:40.093Z,4632.00
2022-08-29T12:03:40.054Z,4752.00
2022-08-29T12:04:40.024Z,5360.00
2022-08-29T12:05:39.960Z,4740.00
2022-08-29T12:06:39.894Z,4748.00
2022-08-29T12:07:39.843Z,4220.00
2022-08-29T12:08:39.791Z,4424.00
2022-08-29T12:09:39.755Z,3988.00
2022-08-29T12:10:39.813Z,3876.00
2022-08-29T12:11:39.682Z,3756.00
2022-08-29T12:12:39.685Z,3260.00
2022-08-29T12:13:39.606Z,3288.00
2022-08-29T12:14:39.563Z,3356.00
2022-08-29T12:15:39.607Z,3572.00
2022-08-29T12:16:39.510Z,3656.00
2022-08-29T12:18:00.323Z,3884.00
2022-08-29T12:18:39.397Z,4104.00
2022-08-29T12:19:39.355Z,4272.00
2022-08-29T12:20:39.377Z,4456.00
2022-08-29T12:21:39.273Z,4008.00
2022-08-29T12:22:39.234Z,4380.00
2022-08-29T12:23:39.190Z,4476.00
2022-08-29T12:24:39.145Z,4420.00
2022-08-29T12:25:39.135Z,5088.00
2022-08-29T12:26:39.067Z,5036.00
2022-08-29T12:27:39.012Z,5148.00
2022-08-29T12:28:39.001Z,5128.00
2022-08-29T12:29:43.765Z,4904.00
2022-08-29T12:30:38.904Z,4912.00
2022-08-29T12:31:40.267Z,5292.00